Airport View

Enter ICAO identifier to see the current METAR for that AWOS.

KFNL for example

KFWC 012035Z AUTO 23009KT 10SM SCT037 29/24 A2992

1 Sep 2014 20:57

Frequency: 119.425

Phone: 618-847-4709

Other Area AWOS: KFOA - KMVN - KCUL - KOLY

TAF KEVV 011720Z 0118/0218 22013G23KT P6SM SCT035 BKN150 FM020000 19006KT P6SM SCT050 BKN150 PROB30 0207/0213 2SM +TSRA BR BKN015CB FM021300 23007KT P6SM BKN025